createdAt,value
2022-11-30T00:01:39.464Z,102859.88
2022-11-30T00:07:01.435Z,102868.06
2022-11-30T00:12:24.015Z,102815.34
2022-11-30T00:17:46.475Z,102858.16
2022-11-30T00:23:10.576Z,102812.53
2022-11-30T00:28:33.657Z,102860.72
2022-11-30T00:33:55.896Z,102794.00
2022-11-30T00:39:18.156Z,102806.13
2022-11-30T00:44:40.783Z,102826.88
2022-11-30T00:50:05.255Z,102832.38
2022-11-30T00:55:30.468Z,102838.59
2022-11-30T01:00:53.257Z,102829.63
2022-11-30T01:06:18.895Z,102850.88
2022-11-30T01:11:41.156Z,102827.28
2022-11-30T01:17:05.325Z,102830.59
2022-11-30T01:22:28.057Z,102825.31
2022-11-30T01:27:51.255Z,102810.72
2022-11-30T01:33:13.594Z,102810.72
2022-11-30T01:38:39.795Z,102848.03
2022-11-30T01:44:07.854Z,102842.19
2022-11-30T01:49:34.782Z,102790.88
2022-11-30T01:55:20.056Z,102781.63
2022-11-30T02:00:46.556Z,102810.91
2022-11-30T02:06:09.236Z,102801.38
2022-11-30T02:11:31.854Z,102797.63
2022-11-30T02:17:09.754Z,102821.84
2022-11-30T02:23:06.156Z,102813.66
2022-11-30T02:28:47.020Z,102840.00
2022-11-30T02:34:14.776Z,102833.38
2022-11-30T02:39:44.594Z,102819.91
2022-11-30T02:45:10.316Z,102795.66
2022-11-30T02:50:40.516Z,102816.75
2022-11-30T02:56:02.783Z,102802.13
2022-11-30T03:01:25.398Z,102813.28
2022-11-30T03:06:47.595Z,102820.38
2022-11-30T03:12:09.595Z,102788.16
2022-11-30T03:17:31.524Z,102823.53
2022-11-30T03:22:53.874Z,102805.09
2022-11-30T03:28:16.255Z,102795.22
2022-11-30T03:33:38.326Z,102828.88
2022-11-30T03:39:00.954Z,102774.69
2022-11-30T03:44:23.029Z,102805.75
2022-11-30T03:49:45.157Z,102784.47
2022-11-30T03:55:08.554Z,102777.34
2022-11-30T04:00:30.634Z,102774.53
2022-11-30T04:05:52.975Z,102758.47
2022-11-30T04:11:16.574Z,102760.13
2022-11-30T04:16:38.474Z,102789.72
2022-11-30T04:22:00.523Z,102810.09
2022-11-30T04:27:23.076Z,102778.22
2022-11-30T04:32:45.155Z,102784.28
2022-11-30T04:38:07.434Z,102789.69
2022-11-30T04:43:32.697Z,102791.44
2022-11-30T04:48:55.097Z,102792.16
2022-11-30T04:54:17.495Z,102789.84
2022-11-30T04:59:40.157Z,102817.03
2022-11-30T05:05:06.434Z,102835.81
2022-11-30T05:10:30.654Z,102819.03
2022-11-30T05:15:54.401Z,102805.69
2022-11-30T05:21:18.654Z,102826.34
2022-11-30T05:26:41.185Z,102834.88
2022-11-30T05:32:05.654Z,102815.47
2022-11-30T05:37:29.554Z,102807.06
2022-11-30T05:42:59.846Z,102837.59
2022-11-30T05:48:22.034Z,102849.31
2022-11-30T05:53:45.434Z,102858.53
2022-11-30T05:59:07.594Z,102814.38
2022-11-30T06:04:30.354Z,102846.53
2022-11-30T06:09:52.475Z,102868.47
2022-11-30T06:15:14.656Z,102862.94
2022-11-30T06:20:36.895Z,102850.72
2022-11-30T06:25:59.121Z,102853.69
2022-11-30T06:31:21.246Z,102870.47
2022-11-30T06:36:43.454Z,102867.50
2022-11-30T06:42:05.995Z,102841.81
2022-11-30T06:47:28.936Z,102832.84
2022-11-30T06:52:54.175Z,102819.91
2022-11-30T06:58:16.225Z,102842.03
2022-11-30T07:03:39.325Z,102842.91
2022-11-30T07:09:02.375Z,102862.44
2022-11-30T07:14:34.296Z,102842.41
2022-11-30T07:19:56.163Z,102846.19
2022-11-30T07:25:37.174Z,102868.50
2022-11-30T07:30:59.716Z,102873.94
2022-11-30T07:36:26.245Z,102883.47
2022-11-30T07:41:48.575Z,102881.28
2022-11-30T07:47:13.577Z,102877.53
2022-11-30T07:52:35.552Z,102868.97
2022-11-30T07:57:57.995Z,102871.66
2022-11-30T08:03:20.216Z,102895.88
2022-11-30T08:08:44.566Z,102883.47
2022-11-30T08:14:07.145Z,102883.44
2022-11-30T08:19:29.371Z,102865.22
2022-11-30T08:24:51.895Z,102884.66
2022-11-30T08:30:14.016Z,102872.59
2022-11-30T08:35:36.336Z,102866.72
2022-11-30T08:41:01.554Z,102850.78
2022-11-30T08:46:50.263Z,102865.09
2022-11-30T08:52:18.471Z,102852.63
2022-11-30T08:57:41.374Z,102850.38
2022-11-30T09:03:03.882Z,102847.22
2022-11-30T09:08:27.155Z,102844.44
2022-11-30T09:13:49.994Z,102858.16
2022-11-30T09:19:18.299Z,102829.41
2022-11-30T09:24:43.735Z,102845.28
2022-11-30T09:30:12.324Z,102839.44
2022-11-30T09:35:37.955Z,102834.34
2022-11-30T09:41:12.456Z,102832.50
2022-11-30T09:46:41.678Z,102866.94
2022-11-30T09:52:06.837Z,102851.88
2022-11-30T09:57:41.434Z,102861.53
2022-11-30T10:03:06.685Z,102863.13
2022-11-30T10:08:40.525Z,102859.91
2022-11-30T10:14:21.007Z,102862.59
2022-11-30T10:20:21.584Z,102862.59
2022-11-30T10:25:57.745Z,102863.00
2022-11-30T10:31:34.048Z,102864.59
2022-11-30T10:37:04.966Z,102826.50
2022-11-30T10:42:43.634Z,102837.53
2022-11-30T10:48:28.904Z,102858.19
2022-11-30T10:53:54.364Z,102841.41
2022-11-30T10:59:30.297Z,102856.22
2022-11-30T11:05:19.526Z,102843.53
2022-11-30T11:10:41.838Z,102868.66
2022-11-30T11:16:05.897Z,102835.13
2022-11-30T11:21:30.645Z,102840.56
2022-11-30T11:26:54.295Z,102837.22
2022-11-30T11:32:26.735Z,102825.00
2022-11-30T11:37:53.136Z,102819.53
2022-11-30T11:43:17.735Z,102863.25
2022-11-30T11:48:57.015Z,102858.22
2022-11-30T11:54:35.276Z,102859.19
2022-11-30T12:00:12.499Z,102858.75
2022-11-30T12:05:45.346Z,102834.09
2022-11-30T12:11:14.935Z,102838.03
2022-11-30T12:17:14.648Z,102855.91
2022-11-30T12:22:53.343Z,102846.22
2022-11-30T12:28:21.277Z,102846.88
2022-11-30T12:34:18.596Z,102846.75
2022-11-30T12:39:57.435Z,102820.69
2022-11-30T12:45:34.435Z,102845.44
2022-11-30T12:51:01.815Z,102803.38
2022-11-30T12:56:46.309Z,102830.63
2022-11-30T13:02:27.708Z,102839.66
2022-11-30T13:08:03.330Z,102819.91
2022-11-30T13:13:36.974Z,102844.47
2022-11-30T13:19:19.766Z,102845.25
2022-11-30T13:24:45.514Z,102845.63
2022-11-30T13:30:29.258Z,102812.31
2022-11-30T13:35:55.493Z,102843.84
2022-11-30T13:41:21.882Z,102809.13
2022-11-30T13:46:51.315Z,102805.25
2022-11-30T13:52:23.723Z,102852.97
2022-11-30T13:57:46.623Z,102849.41
2022-11-30T14:03:21.213Z,102842.97
2022-11-30T14:08:43.435Z,102803.69
2022-11-30T14:14:45.461Z,102845.38
2022-11-30T14:20:19.633Z,102843.28
2022-11-30T14:25:48.534Z,102832.38
2022-11-30T14:31:21.416Z,102855.25
2022-11-30T14:36:48.916Z,102829.50
2022-11-30T14:42:37.474Z,102848.31
2022-11-30T14:48:12.294Z,102829.88
2022-11-30T14:53:46.144Z,102844.38
2022-11-30T14:59:38.836Z,102840.44
2022-11-30T15:05:02.314Z,102812.31
2022-11-30T15:10:32.684Z,102843.97
2022-11-30T15:15:58.196Z,102818.19
2022-11-30T15:21:29.901Z,102798.59
2022-11-30T15:27:11.064Z,102817.41
2022-11-30T15:32:36.062Z,102842.31
2022-11-30T15:37:58.373Z,102797.19
2022-11-30T15:43:27.243Z,102805.16
2022-11-30T15:48:51.796Z,102829.22
2022-11-30T15:54:14.574Z,102785.34
2022-11-30T15:59:36.614Z,102816.78
2022-11-30T16:04:58.910Z,102828.97
2022-11-30T16:10:25.715Z,102803.03
2022-11-30T16:15:52.494Z,102814.81
2022-11-30T16:21:21.960Z,102824.13
2022-11-30T16:26:52.132Z,102808.44
2022-11-30T16:32:16.202Z,102797.50
2022-11-30T16:37:57.377Z,102810.31
2022-11-30T16:43:19.973Z,102813.19
2022-11-30T16:48:43.275Z,102813.34
2022-11-30T16:54:19.493Z,102789.25
2022-11-30T16:59:43.917Z,102810.44
2022-11-30T17:05:08.684Z,102797.06
2022-11-30T17:10:31.547Z,102798.06
2022-11-30T17:16:07.476Z,102762.25
2022-11-30T17:28:10.895Z,102759.19
2022-11-30T17:33:46.438Z,102755.97
2022-11-30T17:39:20.874Z,102787.41
2022-11-30T17:45:06.279Z,102771.84
2022-11-30T17:50:39.297Z,102762.03
2022-11-30T17:56:34.895Z,102765.00
2022-11-30T18:02:01.396Z,102780.25
2022-11-30T18:07:37.942Z,102759.63
2022-11-30T18:13:14.862Z,102800.38
2022-11-30T18:18:54.553Z,102766.09
2022-11-30T18:30:45.371Z,102768.22
2022-11-30T18:42:16.090Z,102771.25
2022-11-30T18:47:53.913Z,102769.44
2022-11-30T18:53:49.975Z,102781.31
2022-11-30T18:59:39.675Z,102817.38
2022-11-30T19:05:02.181Z,102815.25
2022-11-30T19:10:24.997Z,102817.44
2022-11-30T19:15:47.193Z,102805.88
2022-11-30T19:21:12.433Z,102778.94
2022-11-30T19:26:34.495Z,102787.72
2022-11-30T19:31:56.812Z,102796.59
2022-11-30T19:37:19.135Z,102787.19
2022-11-30T19:42:41.445Z,102829.47
2022-11-30T19:48:03.553Z,102790.72
2022-11-30T19:53:25.642Z,102825.28
2022-11-30T19:58:48.055Z,102836.44
2022-11-30T20:04:10.833Z,102840.63
2022-11-30T20:09:34.213Z,102855.94
2022-11-30T20:14:56.551Z,102834.88
2022-11-30T20:20:18.613Z,102831.13
2022-11-30T20:25:40.732Z,102829.72
2022-11-30T20:31:03.843Z,102818.25
2022-11-30T20:36:26.021Z,102799.03
2022-11-30T20:41:48.413Z,102847.41
2022-11-30T20:47:11.773Z,102807.69
2022-11-30T20:52:34.697Z,102813.88
2022-11-30T20:57:57.234Z,102815.63
2022-11-30T21:03:19.342Z,102833.44
2022-11-30T21:08:42.695Z,102817.31
2022-11-30T21:14:05.257Z,102820.94
2022-11-30T21:19:27.734Z,102824.28
2022-11-30T21:24:52.843Z,102852.81
2022-11-30T21:30:15.252Z,102843.53
2022-11-30T21:35:39.173Z,102861.16
2022-11-30T21:41:01.913Z,102852.66
2022-11-30T21:46:24.441Z,102858.06
2022-11-30T21:51:46.453Z,102834.47
2022-11-30T21:57:08.816Z,102806.81
2022-11-30T22:02:30.849Z,102813.56
2022-11-30T22:07:54.307Z,102811.19
2022-11-30T22:13:16.716Z,102830.75
2022-11-30T22:18:39.223Z,102852.81
2022-11-30T22:24:03.735Z,102851.84
2022-11-30T22:29:26.012Z,102806.81
2022-11-30T22:34:47.893Z,102808.41
2022-11-30T22:40:10.534Z,102848.88
2022-11-30T22:45:34.073Z,102850.78
2022-11-30T22:50:56.653Z,102814.84
2022-11-30T22:56:21.457Z,102838.47
2022-11-30T23:01:46.835Z,102830.59
2022-11-30T23:07:09.053Z,102832.34
2022-11-30T23:12:57.947Z,102853.72
2022-11-30T23:18:18.273Z,102849.63
2022-11-30T23:23:41.215Z,102859.13
2022-11-30T23:29:09.035Z,102833.09
2022-11-30T23:34:30.813Z,102828.22
2022-11-30T23:39:52.813Z,102837.69
2022-11-30T23:45:15.095Z,102830.94
2022-11-30T23:50:37.343Z,102821.53
2022-11-30T23:56:04.473Z,102846.88
